sensor_id;sensor_type;location;lat;lon;timestamp;P1;durP1;ratioP1;P2;durP2;ratioP2
18336;SDS011;9294;51.106;7.028;2023-05-14T00:01:32;4.15;;;3.95;;
18336;SDS011;9294;51.106;7.028;2023-05-14T00:04:00;3.90;;;3.70;;
18336;SDS011;9294;51.106;7.028;2023-05-14T00:06:27;3.58;;;3.47;;
18336;SDS011;9294;51.106;7.028;2023-05-14T00:08:55;3.67;;;3.58;;
18336;SDS011;9294;51.106;7.028;2023-05-14T00:11:21;3.88;;;3.67;;
18336;SDS011;9294;51.106;7.028;2023-05-14T00:13:48;4.10;;;3.88;;
18336;SDS011;9294;51.106;7.028;2023-05-14T00:16:15;3.90;;;3.70;;
18336;SDS011;9294;51.106;7.028;2023-05-14T00:18:42;3.65;;;3.45;;
18336;SDS011;9294;51.106;7.028;2023-05-14T00:21:09;3.58;;;3.45;;
18336;SDS011;9294;51.106;7.028;2023-05-14T00:23:36;4.03;;;3.83;;
18336;SDS011;9294;51.106;7.028;2023-05-14T00:26:05;3.60;;;3.50;;
18336;SDS011;9294;51.106;7.028;2023-05-14T00:28:31;3.78;;;3.55;;
18336;SDS011;9294;51.106;7.028;2023-05-14T00:30:58;3.53;;;3.42;;
18336;SDS011;9294;51.106;7.028;2023-05-14T00:33:25;4.10;;;3.90;;
18336;SDS011;9294;51.106;7.028;2023-05-14T00:35:52;3.42;;;3.33;;
18336;SDS011;9294;51.106;7.028;2023-05-14T00:38:19;3.65;;;3.55;;
18336;SDS011;9294;51.106;7.028;2023-05-14T00:40:48;4.18;;;3.97;;
18336;SDS011;9294;51.106;7.028;2023-05-14T00:43:17;3.50;;;3.40;;
18336;SDS011;9294;51.106;7.028;2023-05-14T00:45:44;3.75;;;3.55;;
18336;SDS011;9294;51.106;7.028;2023-05-14T00:48:12;4.00;;;3.78;;
18336;SDS011;9294;51.106;7.028;2023-05-14T00:50:39;3.92;;;3.72;;
18336;SDS011;9294;51.106;7.028;2023-05-14T00:53:06;3.83;;;3.63;;
18336;SDS011;9294;51.106;7.028;2023-05-14T00:55:34;4.00;;;3.80;;
18336;SDS011;9294;51.106;7.028;2023-05-14T00:58:03;3.88;;;3.67;;
18336;SDS011;9294;51.106;7.028;2023-05-14T01:00:33;3.67;;;3.50;;
18336;SDS011;9294;51.106;7.028;2023-05-14T01:03:00;3.88;;;3.75;;
18336;SDS011;9294;51.106;7.028;2023-05-14T01:05:28;3.70;;;3.50;;
18336;SDS011;9294;51.106;7.028;2023-05-14T01:08:01;3.97;;;3.78;;
18336;SDS011;9294;51.106;7.028;2023-05-14T01:10:36;3.90;;;3.80;;
18336;SDS011;9294;51.106;7.028;2023-05-14T01:13:12;3.65;;;3.55;;
18336;SDS011;9294;51.106;7.028;2023-05-14T01:15:46;4.25;;;4.05;;
18336;SDS011;9294;51.106;7.028;2023-05-14T01:18:15;3.88;;;3.67;;
18336;SDS011;9294;51.106;7.028;2023-05-14T01:20:43;3.53;;;3.42;;
18336;SDS011;9294;51.106;7.028;2023-05-14T01:23:12;4.00;;;3.80;;
18336;SDS011;9294;51.106;7.028;2023-05-14T01:25:38;3.70;;;3.50;;
18336;SDS011;9294;51.106;7.028;2023-05-14T01:28:08;4.22;;;4.03;;
18336;SDS011;9294;51.106;7.028;2023-05-14T01:30:39;3.92;;;3.72;;
18336;SDS011;9294;51.106;7.028;2023-05-14T01:33:10;3.90;;;3.70;;
18336;SDS011;9294;51.106;7.028;2023-05-14T01:35:38;4.15;;;3.95;;
18336;SDS011;9294;51.106;7.028;2023-05-14T01:38:06;4.10;;;3.90;;
18336;SDS011;9294;51.106;7.028;2023-05-14T01:40:38;3.75;;;3.65;;
18336;SDS011;9294;51.106;7.028;2023-05-14T01:43:05;3.75;;;3.55;;
18336;SDS011;9294;51.106;7.028;2023-05-14T01:45:33;3.83;;;3.65;;
18336;SDS011;9294;51.106;7.028;2023-05-14T01:48:01;3.65;;;3.53;;
18336;SDS011;9294;51.106;7.028;2023-05-14T01:50:28;4.03;;;3.83;;
18336;SDS011;9294;51.106;7.028;2023-05-14T01:52:54;3.85;;;3.72;;
18336;SDS011;9294;51.106;7.028;2023-05-14T01:55:21;4.22;;;3.90;;
18336;SDS011;9294;51.106;7.028;2023-05-14T01:57:50;4.18;;;3.97;;
18336;SDS011;9294;51.106;7.028;2023-05-14T02:00:17;3.92;;;3.78;;
18336;SDS011;9294;51.106;7.028;2023-05-14T02:02:44;4.22;;;4.03;;
18336;SDS011;9294;51.106;7.028;2023-05-14T02:05:11;4.18;;;4.00;;
18336;SDS011;9294;51.106;7.028;2023-05-14T02:07:38;4.50;;;4.30;;
18336;SDS011;9294;51.106;7.028;2023-05-14T02:10:05;4.05;;;3.85;;
18336;SDS011;9294;51.106;7.028;2023-05-14T02:12:33;4.35;;;4.15;;
18336;SDS011;9294;51.106;7.028;2023-05-14T02:15:01;3.97;;;3.78;;
18336;SDS011;9294;51.106;7.028;2023-05-14T02:17:28;3.75;;;3.65;;
18336;SDS011;9294;51.106;7.028;2023-05-14T02:19:55;3.70;;;3.50;;
18336;SDS011;9294;51.106;7.028;2023-05-14T02:22:22;3.85;;;3.65;;
18336;SDS011;9294;51.106;7.028;2023-05-14T02:24:49;4.20;;;4.00;;
18336;SDS011;9294;51.106;7.028;2023-05-14T02:27:16;4.40;;;4.20;;
18336;SDS011;9294;51.106;7.028;2023-05-14T02:29:43;4.15;;;3.85;;
18336;SDS011;9294;51.106;7.028;2023-05-14T02:32:11;3.92;;;3.80;;
18336;SDS011;9294;51.106;7.028;2023-05-14T02:34:38;4.00;;;3.80;;
18336;SDS011;9294;51.106;7.028;2023-05-14T02:37:05;3.92;;;3.83;;
18336;SDS011;9294;51.106;7.028;2023-05-14T02:39:31;4.00;;;3.80;;
18336;SDS011;9294;51.106;7.028;2023-05-14T02:41:58;3.95;;;3.83;;
18336;SDS011;9294;51.106;7.028;2023-05-14T02:44:25;3.92;;;3.72;;
18336;SDS011;9294;51.106;7.028;2023-05-14T02:46:52;4.07;;;3.88;;
18336;SDS011;9294;51.106;7.028;2023-05-14T02:49:20;4.07;;;3.97;;
18336;SDS011;9294;51.106;7.028;2023-05-14T02:51:46;4.75;;;4.45;;
18336;SDS011;9294;51.106;7.028;2023-05-14T02:54:13;4.10;;;3.90;;
18336;SDS011;9294;51.106;7.028;2023-05-14T02:56:41;4.20;;;4.00;;
18336;SDS011;9294;51.106;7.028;2023-05-14T02:59:08;4.32;;;4.13;;
18336;SDS011;9294;51.106;7.028;2023-05-14T03:01:34;4.28;;;4.07;;
18336;SDS011;9294;51.106;7.028;2023-05-14T03:04:01;3.88;;;3.72;;
18336;SDS011;9294;51.106;7.028;2023-05-14T03:06:29;3.97;;;3.78;;
18336;SDS011;9294;51.106;7.028;2023-05-14T03:08:56;3.60;;;3.45;;
18336;SDS011;9294;51.106;7.028;2023-05-14T03:11:23;4.32;;;4.13;;
18336;SDS011;9294;51.106;7.028;2023-05-14T03:13:50;3.45;;;3.35;;
18336;SDS011;9294;51.106;7.028;2023-05-14T03:16:16;3.92;;;3.75;;
18336;SDS011;9294;51.106;7.028;2023-05-14T03:18:44;4.28;;;4.07;;
18336;SDS011;9294;51.106;7.028;2023-05-14T03:21:11;3.40;;;3.30;;
18336;SDS011;9294;51.106;7.028;2023-05-14T03:23:39;4.35;;;4.07;;
18336;SDS011;9294;51.106;7.028;2023-05-14T03:26:05;3.85;;;3.75;;
18336;SDS011;9294;51.106;7.028;2023-05-14T03:28:32;4.32;;;4.13;;
18336;SDS011;9294;51.106;7.028;2023-05-14T03:30:59;3.88;;;3.78;;
18336;SDS011;9294;51.106;7.028;2023-05-14T03:33:26;4.13;;;3.92;;
18336;SDS011;9294;51.106;7.028;2023-05-14T03:35:53;3.72;;;3.63;;
18336;SDS011;9294;51.106;7.028;2023-05-14T03:38:20;3.72;;;3.63;;
18336;SDS011;9294;51.106;7.028;2023-05-14T03:40:48;4.57;;;4.38;;
18336;SDS011;9294;51.106;7.028;2023-05-14T03:43:14;3.70;;;3.60;;
18336;SDS011;9294;51.106;7.028;2023-05-14T03:45:41;4.10;;;3.90;;
18336;SDS011;9294;51.106;7.028;2023-05-14T03:48:08;4.30;;;4.10;;
18336;SDS011;9294;51.106;7.028;2023-05-14T03:50:35;3.75;;;3.55;;
18336;SDS011;9294;51.106;7.028;2023-05-14T03:53:02;4.10;;;3.90;;
18336;SDS011;9294;51.106;7.028;2023-05-14T03:55:29;4.32;;;4.13;;
18336;SDS011;9294;51.106;7.028;2023-05-14T03:57:57;4.28;;;4.07;;
18336;SDS011;9294;51.106;7.028;2023-05-14T04:00:23;4.35;;;4.15;;
18336;SDS011;9294;51.106;7.028;2023-05-14T04:02:50;3.70;;;3.60;;
18336;SDS011;9294;51.106;7.028;2023-05-14T04:05:17;4.03;;;3.83;;
18336;SDS011;9294;51.106;7.028;2023-05-14T04:07:44;3.92;;;3.80;;
18336;SDS011;9294;51.106;7.028;2023-05-14T04:10:11;4.28;;;4.07;;
18336;SDS011;9294;51.106;7.028;2023-05-14T04:12:38;3.97;;;3.80;;
18336;SDS011;9294;51.106;7.028;2023-05-14T04:15:07;4.30;;;4.10;;
18336;SDS011;9294;51.106;7.028;2023-05-14T04:17:34;3.80;;;3.70;;
18336;SDS011;9294;51.106;7.028;2023-05-14T04:20:01;4.10;;;3.90;;
18336;SDS011;9294;51.106;7.028;2023-05-14T04:22:28;4.00;;;3.80;;
18336;SDS011;9294;51.106;7.028;2023-05-14T04:24:56;3.83;;;3.63;;
18336;SDS011;9294;51.106;7.028;2023-05-14T04:27:23;4.13;;;3.92;;
18336;SDS011;9294;51.106;7.028;2023-05-14T04:29:49;3.67;;;3.58;;
18336;SDS011;9294;51.106;7.028;2023-05-14T04:32:17;4.65;;;4.45;;
18336;SDS011;9294;51.106;7.028;2023-05-14T04:34:44;4.00;;;3.88;;
18336;SDS011;9294;51.106;7.028;2023-05-14T04:37:11;4.32;;;4.13;;
18336;SDS011;9294;51.106;7.028;2023-05-14T04:39:38;3.78;;;3.67;;
18336;SDS011;9294;51.106;7.028;2023-05-14T04:42:05;4.00;;;3.88;;
18336;SDS011;9294;51.106;7.028;2023-05-14T04:44:32;4.10;;;3.90;;
18336;SDS011;9294;51.106;7.028;2023-05-14T04:47:00;3.78;;;3.58;;
18336;SDS011;9294;51.106;7.028;2023-05-14T04:49:28;3.53;;;3.42;;
18336;SDS011;9294;51.106;7.028;2023-05-14T04:51:55;3.90;;;3.80;;
18336;SDS011;9294;51.106;7.028;2023-05-14T04:54:22;4.18;;;3.97;;
18336;SDS011;9294;51.106;7.028;2023-05-14T04:56:49;4.03;;;3.92;;
18336;SDS011;9294;51.106;7.028;2023-05-14T04:59:16;3.72;;;3.53;;
18336;SDS011;9294;51.106;7.028;2023-05-14T05:01:43;3.78;;;3.67;;
18336;SDS011;9294;51.106;7.028;2023-05-14T05:04:10;4.22;;;4.03;;
18336;SDS011;9294;51.106;7.028;2023-05-14T05:06:38;3.97;;;3.78;;
18336;SDS011;9294;51.106;7.028;2023-05-14T05:09:05;4.15;;;3.95;;
18336;SDS011;9294;51.106;7.028;2023-05-14T05:11:33;4.03;;;3.83;;
18336;SDS011;9294;51.106;7.028;2023-05-14T05:14:00;4.00;;;3.80;;
18336;SDS011;9294;51.106;7.028;2023-05-14T05:16:26;4.03;;;3.83;;
18336;SDS011;9294;51.106;7.028;2023-05-14T05:18:53;4.10;;;3.90;;
18336;SDS011;9294;51.106;7.028;2023-05-14T05:21:20;3.75;;;3.65;;
18336;SDS011;9294;51.106;7.028;2023-05-14T05:23:48;4.00;;;3.80;;
18336;SDS011;9294;51.106;7.028;2023-05-14T05:26:15;4.13;;;3.92;;
18336;SDS011;9294;51.106;7.028;2023-05-14T05:28:42;4.25;;;3.97;;
18336;SDS011;9294;51.106;7.028;2023-05-14T05:31:09;4.03;;;3.90;;
18336;SDS011;9294;51.106;7.028;2023-05-14T05:33:37;3.88;;;3.75;;
18336;SDS011;9294;51.106;7.028;2023-05-14T05:36:04;4.32;;;4.10;;
18336;SDS011;9294;51.106;7.028;2023-05-14T05:38:31;4.30;;;4.13;;
18336;SDS011;9294;51.106;7.028;2023-05-14T05:40:59;4.43;;;4.22;;
18336;SDS011;9294;51.106;7.028;2023-05-14T05:43:26;3.88;;;3.67;;
18336;SDS011;9294;51.106;7.028;2023-05-14T05:45:53;3.97;;;3.88;;
18336;SDS011;9294;51.106;7.028;2023-05-14T05:48:20;4.00;;;3.80;;
18336;SDS011;9294;51.106;7.028;2023-05-14T05:50:47;3.95;;;3.75;;
18336;SDS011;9294;51.106;7.028;2023-05-14T05:53:15;3.92;;;3.72;;
18336;SDS011;9294;51.106;7.028;2023-05-14T05:55:42;4.07;;;3.92;;
18336;SDS011;9294;51.106;7.028;2023-05-14T05:58:10;4.03;;;3.50;;
18336;SDS011;9294;51.106;7.028;2023-05-14T06:00:39;4.10;;;3.80;;
18336;SDS011;9294;51.106;7.028;2023-05-14T06:03:06;3.70;;;3.50;;
18336;SDS011;9294;51.106;7.028;2023-05-14T06:05:33;5.07;;;3.90;;
18336;SDS011;9294;51.106;7.028;2023-05-14T06:08:00;3.90;;;3.70;;
18336;SDS011;9294;51.106;7.028;2023-05-14T06:10:28;4.00;;;3.80;;
18336;SDS011;9294;51.106;7.028;2023-05-14T06:12:55;4.25;;;4.05;;
18336;SDS011;9294;51.106;7.028;2023-05-14T06:15:23;3.78;;;3.65;;
18336;SDS011;9294;51.106;7.028;2023-05-14T06:17:50;4.00;;;3.80;;
18336;SDS011;9294;51.106;7.028;2023-05-14T06:20:17;4.07;;;3.80;;
18336;SDS011;9294;51.106;7.028;2023-05-14T06:22:45;3.80;;;3.60;;
18336;SDS011;9294;51.106;7.028;2023-05-14T06:25:12;4.18;;;3.97;;
18336;SDS011;9294;51.106;7.028;2023-05-14T06:27:39;4.38;;;3.85;;
18336;SDS011;9294;51.106;7.028;2023-05-14T06:30:06;4.70;;;4.30;;
18336;SDS011;9294;51.106;7.028;2023-05-14T06:32:36;4.20;;;3.90;;
18336;SDS011;9294;51.106;7.028;2023-05-14T06:35:03;4.38;;;4.18;;
18336;SDS011;9294;51.106;7.028;2023-05-14T06:37:30;4.10;;;3.80;;
18336;SDS011;9294;51.106;7.028;2023-05-14T06:39:57;3.95;;;3.80;;
18336;SDS011;9294;51.106;7.028;2023-05-14T06:42:24;4.45;;;4.20;;
18336;SDS011;9294;51.106;7.028;2023-05-14T06:44:51;8.85;;;4.28;;
18336;SDS011;9294;51.106;7.028;2023-05-14T06:47:18;4.15;;;3.83;;
18336;SDS011;9294;51.106;7.028;2023-05-14T06:49:46;4.57;;;4.25;;
18336;SDS011;9294;51.106;7.028;2023-05-14T06:52:13;4.25;;;3.95;;
18336;SDS011;9294;51.106;7.028;2023-05-14T06:54:40;4.15;;;4.00;;
18336;SDS011;9294;51.106;7.028;2023-05-14T06:57:07;3.83;;;3.63;;
18336;SDS011;9294;51.106;7.028;2023-05-14T06:59:34;3.63;;;3.42;;
18336;SDS011;9294;51.106;7.028;2023-05-14T07:02:01;4.43;;;4.20;;
18336;SDS011;9294;51.106;7.028;2023-05-14T07:04:28;4.60;;;4.20;;
18336;SDS011;9294;51.106;7.028;2023-05-14T07:06:56;4.25;;;3.95;;
18336;SDS011;9294;51.106;7.028;2023-05-14T07:09:23;4.25;;;3.90;;
18336;SDS011;9294;51.106;7.028;2023-05-14T07:11:50;4.90;;;4.50;;
18336;SDS011;9294;51.106;7.028;2023-05-14T07:14:17;8.70;;;4.75;;
18336;SDS011;9294;51.106;7.028;2023-05-14T07:16:44;7.10;;;4.47;;
18336;SDS011;9294;51.106;7.028;2023-05-14T07:19:11;5.95;;;4.75;;
18336;SDS011;9294;51.106;7.028;2023-05-14T07:21:38;5.18;;;4.78;;
18336;SDS011;9294;51.106;7.028;2023-05-14T07:24:07;4.95;;;4.28;;
18336;SDS011;9294;51.106;7.028;2023-05-14T07:26:33;5.43;;;4.63;;
18336;SDS011;9294;51.106;7.028;2023-05-14T07:29:00;5.22;;;4.72;;
18336;SDS011;9294;51.106;7.028;2023-05-14T07:31:27;5.50;;;5.10;;
18336;SDS011;9294;51.106;7.028;2023-05-14T07:33:54;4.80;;;4.50;;
18336;SDS011;9294;51.106;7.028;2023-05-14T07:36:21;5.18;;;4.70;;
18336;SDS011;9294;51.106;7.028;2023-05-14T07:38:48;5.13;;;4.72;;
18336;SDS011;9294;51.106;7.028;2023-05-14T07:41:16;5.28;;;4.97;;
18336;SDS011;9294;51.106;7.028;2023-05-14T07:43:43;5.50;;;5.00;;
18336;SDS011;9294;51.106;7.028;2023-05-14T07:46:10;5.03;;;4.63;;
18336;SDS011;9294;51.106;7.028;2023-05-14T07:48:37;5.28;;;4.88;;
18336;SDS011;9294;51.106;7.028;2023-05-14T07:51:03;5.47;;;4.97;;
18336;SDS011;9294;51.106;7.028;2023-05-14T07:53:30;4.80;;;4.50;;
18336;SDS011;9294;51.106;7.028;2023-05-14T07:55:57;5.35;;;5.05;;
18336;SDS011;9294;51.106;7.028;2023-05-14T07:58:26;5.00;;;4.60;;
18336;SDS011;9294;51.106;7.028;2023-05-14T08:00:53;5.13;;;4.80;;
18336;SDS011;9294;51.106;7.028;2023-05-14T08:03:20;4.72;;;4.53;;
18336;SDS011;9294;51.106;7.028;2023-05-14T08:05:47;4.72;;;4.40;;
18336;SDS011;9294;51.106;7.028;2023-05-14T08:08:13;5.25;;;4.93;;
18336;SDS011;9294;51.106;7.028;2023-05-14T08:10:41;5.07;;;4.85;;
18336;SDS011;9294;51.106;7.028;2023-05-14T08:13:07;4.35;;;4.15;;
18336;SDS011;9294;51.106;7.028;2023-05-14T08:15:36;5.30;;;4.90;;
18336;SDS011;9294;51.106;7.028;2023-05-14T08:18:02;5.00;;;4.70;;
18336;SDS011;9294;51.106;7.028;2023-05-14T08:20:29;4.57;;;4.35;;
18336;SDS011;9294;51.106;7.028;2023-05-14T08:22:56;5.15;;;4.68;;
18336;SDS011;9294;51.106;7.028;2023-05-14T08:25:23;5.13;;;4.85;;
18336;SDS011;9294;51.106;7.028;2023-05-14T08:27:50;4.45;;;4.25;;
18336;SDS011;9294;51.106;7.028;2023-05-14T08:30:18;4.57;;;4.38;;
18336;SDS011;9294;51.106;7.028;2023-05-14T08:32:46;4.78;;;4.40;;
18336;SDS011;9294;51.106;7.028;2023-05-14T08:35:13;4.70;;;4.50;;
18336;SDS011;9294;51.106;7.028;2023-05-14T08:37:40;4.53;;;4.32;;
18336;SDS011;9294;51.106;7.028;2023-05-14T08:40:07;4.95;;;4.75;;
18336;SDS011;9294;51.106;7.028;2023-05-14T08:42:34;4.32;;;4.13;;
18336;SDS011;9294;51.106;7.028;2023-05-14T08:45:05;4.70;;;4.40;;
18336;SDS011;9294;51.106;7.028;2023-05-14T08:47:36;4.35;;;4.15;;
18336;SDS011;9294;51.106;7.028;2023-05-14T08:50:05;4.57;;;4.38;;
18336;SDS011;9294;51.106;7.028;2023-05-14T08:52:33;3.85;;;3.65;;
18336;SDS011;9294;51.106;7.028;2023-05-14T08:55:02;4.35;;;4.15;;
18336;SDS011;9294;51.106;7.028;2023-05-14T08:57:30;4.68;;;4.25;;
18336;SDS011;9294;51.106;7.028;2023-05-14T08:59:58;4.38;;;4.18;;
18336;SDS011;9294;51.106;7.028;2023-05-14T09:02:26;5.10;;;4.70;;
18336;SDS011;9294;51.106;7.028;2023-05-14T09:04:55;4.78;;;4.50;;
18336;SDS011;9294;51.106;7.028;2023-05-14T09:07:24;4.95;;;4.65;;
18336;SDS011;9294;51.106;7.028;2023-05-14T09:09:52;4.35;;;4.15;;
18336;SDS011;9294;51.106;7.028;2023-05-14T09:12:20;4.55;;;4.25;;
18336;SDS011;9294;51.106;7.028;2023-05-14T09:14:47;4.35;;;4.05;;
18336;SDS011;9294;51.106;7.028;2023-05-14T09:17:14;4.60;;;4.38;;
18336;SDS011;9294;51.106;7.028;2023-05-14T09:19:42;8.40;;;4.80;;
18336;SDS011;9294;51.106;7.028;2023-05-14T09:22:12;4.68;;;4.30;;
18336;SDS011;9294;51.106;7.028;2023-05-14T09:24:41;6.60;;;4.97;;
18336;SDS011;9294;51.106;7.028;2023-05-14T09:27:09;7.13;;;4.88;;
18336;SDS011;9294;51.106;7.028;2023-05-14T09:29:42;4.88;;;4.22;;
18336;SDS011;9294;51.106;7.028;2023-05-14T09:32:09;5.40;;;4.90;;
18336;SDS011;9294;51.106;7.028;2023-05-14T09:34:36;4.88;;;4.55;;
18336;SDS011;9294;51.106;7.028;2023-05-14T09:37:04;6.90;;;4.60;;
18336;SDS011;9294;51.106;7.028;2023-05-14T09:39:32;4.55;;;4.22;;
18336;SDS011;9294;51.106;7.028;2023-05-14T09:42:02;4.88;;;4.50;;
18336;SDS011;9294;51.106;7.028;2023-05-14T09:44:30;5.00;;;4.35;;
18336;SDS011;9294;51.106;7.028;2023-05-14T09:46:57;7.88;;;4.88;;
18336;SDS011;9294;51.106;7.028;2023-05-14T09:49:24;4.57;;;4.20;;
18336;SDS011;9294;51.106;7.028;2023-05-14T09:51:51;5.10;;;4.47;;
18336;SDS011;9294;51.106;7.028;2023-05-14T09:54:18;5.15;;;4.82;;
18336;SDS011;9294;51.106;7.028;2023-05-14T09:56:45;5.07;;;4.70;;
18336;SDS011;9294;51.106;7.028;2023-05-14T09:59:13;8.48;;;5.18;;
18336;SDS011;9294;51.106;7.028;2023-05-14T10:01:41;6.93;;;5.18;;
18336;SDS011;9294;51.106;7.028;2023-05-14T10:04:08;5.95;;;5.38;;
18336;SDS011;9294;51.106;7.028;2023-05-14T10:06:36;5.57;;;5.22;;
18336;SDS011;9294;51.106;7.028;2023-05-14T10:09:04;5.93;;;5.63;;
18336;SDS011;9294;51.106;7.028;2023-05-14T10:11:36;6.07;;;5.78;;
18336;SDS011;9294;51.106;7.028;2023-05-14T10:14:05;6.03;;;5.55;;
18336;SDS011;9294;51.106;7.028;2023-05-14T10:16:35;5.45;;;5.15;;
18336;SDS011;9294;51.106;7.028;2023-05-14T10:19:07;5.68;;;5.30;;
18336;SDS011;9294;51.106;7.028;2023-05-14T10:21:35;8.65;;;6.07;;
18336;SDS011;9294;51.106;7.028;2023-05-14T10:24:03;5.97;;;5.45;;
18336;SDS011;9294;51.106;7.028;2023-05-14T10:26:31;5.63;;;5.22;;
18336;SDS011;9294;51.106;7.028;2023-05-14T10:29:04;5.60;;;5.10;;
18336;SDS011;9294;51.106;7.028;2023-05-14T10:31:46;5.45;;;5.00;;
18336;SDS011;9294;51.106;7.028;2023-05-14T10:34:30;5.43;;;4.90;;
18336;SDS011;9294;51.106;7.028;2023-05-14T10:36:58;5.47;;;5.00;;
18336;SDS011;9294;51.106;7.028;2023-05-14T10:39:38;5.45;;;5.05;;
18336;SDS011;9294;51.106;7.028;2023-05-14T10:42:09;5.20;;;4.80;;
18336;SDS011;9294;51.106;7.028;2023-05-14T10:44:39;5.43;;;5.00;;
18336;SDS011;9294;51.106;7.028;2023-05-14T10:47:13;5.10;;;4.80;;
18336;SDS011;9294;51.106;7.028;2023-05-14T10:49:40;4.80;;;4.60;;
18336;SDS011;9294;51.106;7.028;2023-05-14T10:52:08;5.53;;;5.18;;
18336;SDS011;9294;51.106;7.028;2023-05-14T10:54:36;5.45;;;5.05;;
18336;SDS011;9294;51.106;7.028;2023-05-14T10:57:03;5.20;;;4.30;;
18336;SDS011;9294;51.106;7.028;2023-05-14T10:59:30;6.53;;;4.35;;
18336;SDS011;9294;51.106;7.028;2023-05-14T11:01:59;5.43;;;4.95;;
18336;SDS011;9294;51.106;7.028;2023-05-14T11:04:27;5.25;;;4.75;;
18336;SDS011;9294;51.106;7.028;2023-05-14T11:06:54;4.82;;;4.53;;
18336;SDS011;9294;51.106;7.028;2023-05-14T11:09:21;5.43;;;5.07;;
18336;SDS011;9294;51.106;7.028;2023-05-14T11:11:50;4.53;;;4.30;;
18336;SDS011;9294;51.106;7.028;2023-05-14T11:14:18;4.07;;;3.88;;
18336;SDS011;9294;51.106;7.028;2023-05-14T11:16:45;5.05;;;4.65;;
18336;SDS011;9294;51.106;7.028;2023-05-14T11:19:12;4.93;;;4.63;;
18336;SDS011;9294;51.106;7.028;2023-05-14T11:21:40;6.10;;;5.05;;
18336;SDS011;9294;51.106;7.028;2023-05-14T11:24:07;4.53;;;4.30;;
18336;SDS011;9294;51.106;7.028;2023-05-14T11:26:34;4.97;;;4.68;;
18336;SDS011;9294;51.106;7.028;2023-05-14T11:29:03;4.38;;;4.18;;
18336;SDS011;9294;51.106;7.028;2023-05-14T11:31:30;4.47;;;4.18;;
18336;SDS011;9294;51.106;7.028;2023-05-14T11:33:57;5.00;;;4.70;;
18336;SDS011;9294;51.106;7.028;2023-05-14T11:36:24;5.43;;;4.93;;
18336;SDS011;9294;51.106;7.028;2023-05-14T11:38:52;4.85;;;4.65;;
18336;SDS011;9294;51.106;7.028;2023-05-14T11:41:19;8.93;;;4.55;;
18336;SDS011;9294;51.106;7.028;2023-05-14T11:43:46;4.18;;;3.97;;
18336;SDS011;9294;51.106;7.028;2023-05-14T11:46:17;4.25;;;4.05;;
18336;SDS011;9294;51.106;7.028;2023-05-14T11:48:43;4.07;;;3.88;;
18336;SDS011;9294;51.106;7.028;2023-05-14T11:51:11;6.60;;;4.25;;
18336;SDS011;9294;51.106;7.028;2023-05-14T11:53:38;4.28;;;4.07;;
18336;SDS011;9294;51.106;7.028;2023-05-14T11:56:06;4.57;;;4.28;;
18336;SDS011;9294;51.106;7.028;2023-05-14T11:58:32;4.82;;;4.50;;
18336;SDS011;9294;51.106;7.028;2023-05-14T12:00:59;4.70;;;4.50;;
18336;SDS011;9294;51.106;7.028;2023-05-14T12:03:26;4.55;;;4.35;;
18336;SDS011;9294;51.106;7.028;2023-05-14T12:05:54;5.53;;;4.43;;
18336;SDS011;9294;51.106;7.028;2023-05-14T12:08:25;4.28;;;4.13;;
18336;SDS011;9294;51.106;7.028;2023-05-14T12:10:53;4.60;;;3.88;;
18336;SDS011;9294;51.106;7.028;2023-05-14T12:13:23;4.20;;;4.00;;
18336;SDS011;9294;51.106;7.028;2023-05-14T12:15:54;4.18;;;3.75;;
18336;SDS011;9294;51.106;7.028;2023-05-14T12:18:23;4.22;;;3.92;;
18336;SDS011;9294;51.106;7.028;2023-05-14T12:20:50;3.83;;;3.63;;
18336;SDS011;9294;51.106;7.028;2023-05-14T12:23:23;4.68;;;4.28;;
18336;SDS011;9294;51.106;7.028;2023-05-14T12:25:50;4.43;;;4.22;;
18336;SDS011;9294;51.106;7.028;2023-05-14T12:28:22;4.10;;;3.90;;
18336;SDS011;9294;51.106;7.028;2023-05-14T12:30:54;4.63;;;4.43;;
18336;SDS011;9294;51.106;7.028;2023-05-14T12:33:21;4.05;;;3.95;;
18336;SDS011;9294;51.106;7.028;2023-05-14T12:35:50;4.32;;;4.13;;
18336;SDS011;9294;51.106;7.028;2023-05-14T12:38:18;4.22;;;4.03;;
18336;SDS011;9294;51.106;7.028;2023-05-14T12:40:45;3.80;;;3.70;;
18336;SDS011;9294;51.106;7.028;2023-05-14T12:43:12;4.07;;;3.88;;
18336;SDS011;9294;51.106;7.028;2023-05-14T12:45:40;4.43;;;4.22;;
18336;SDS011;9294;51.106;7.028;2023-05-14T12:48:07;4.00;;;3.80;;
18336;SDS011;9294;51.106;7.028;2023-05-14T12:50:34;4.45;;;4.15;;
18336;SDS011;9294;51.106;7.028;2023-05-14T12:53:00;8.15;;;3.88;;
18336;SDS011;9294;51.106;7.028;2023-05-14T12:55:28;4.25;;;3.90;;
18336;SDS011;9294;51.106;7.028;2023-05-14T12:57:55;4.78;;;4.43;;
18336;SDS011;9294;51.106;7.028;2023-05-14T13:00:22;5.13;;;4.57;;
18336;SDS011;9294;51.106;7.028;2023-05-14T13:02:51;4.15;;;3.88;;
18336;SDS011;9294;51.106;7.028;2023-05-14T13:05:17;4.82;;;4.35;;
18336;SDS011;9294;51.106;7.028;2023-05-14T13:07:44;4.60;;;4.30;;
18336;SDS011;9294;51.106;7.028;2023-05-14T13:10:11;4.10;;;3.80;;
18336;SDS011;9294;51.106;7.028;2023-05-14T13:12:39;4.18;;;3.80;;
18336;SDS011;9294;51.106;7.028;2023-05-14T13:15:06;3.83;;;3.63;;
18336;SDS011;9294;51.106;7.028;2023-05-14T13:17:34;4.03;;;3.72;;
18336;SDS011;9294;51.106;7.028;2023-05-14T13:20:02;4.68;;;4.25;;
18336;SDS011;9294;51.106;7.028;2023-05-14T13:22:30;4.18;;;3.88;;
18336;SDS011;9294;51.106;7.028;2023-05-14T13:24:57;4.35;;;3.95;;
18336;SDS011;9294;51.106;7.028;2023-05-14T13:27:24;4.18;;;3.90;;
18336;SDS011;9294;51.106;7.028;2023-05-14T13:29:51;4.35;;;4.00;;
18336;SDS011;9294;51.106;7.028;2023-05-14T13:32:18;4.22;;;3.92;;
18336;SDS011;9294;51.106;7.028;2023-05-14T13:34:45;4.85;;;4.45;;
18336;SDS011;9294;51.106;7.028;2023-05-14T13:37:13;4.40;;;4.00;;
18336;SDS011;9294;51.106;7.028;2023-05-14T13:39:40;4.50;;;4.20;;
18336;SDS011;9294;51.106;7.028;2023-05-14T13:42:07;4.03;;;3.80;;
18336;SDS011;9294;51.106;7.028;2023-05-14T13:44:34;5.45;;;4.10;;
18336;SDS011;9294;51.106;7.028;2023-05-14T13:47:01;4.63;;;4.20;;
18336;SDS011;9294;51.106;7.028;2023-05-14T13:49:28;4.93;;;4.68;;
18336;SDS011;9294;51.106;7.028;2023-05-14T13:51:54;4.45;;;4.20;;
18336;SDS011;9294;51.106;7.028;2023-05-14T13:54:23;4.10;;;3.90;;
18336;SDS011;9294;51.106;7.028;2023-05-14T13:56:50;5.95;;;4.13;;
18336;SDS011;9294;51.106;7.028;2023-05-14T13:59:16;7.93;;;4.45;;
18336;SDS011;9294;51.106;7.028;2023-05-14T14:01:44;4.40;;;4.10;;
18336;SDS011;9294;51.106;7.028;2023-05-14T14:04:13;4.80;;;4.40;;
18336;SDS011;9294;51.106;7.028;2023-05-14T14:06:40;5.05;;;4.22;;
18336;SDS011;9294;51.106;7.028;2023-05-14T14:09:07;4.38;;;4.07;;
18336;SDS011;9294;51.106;7.028;2023-05-14T14:11:36;5.22;;;4.15;;
18336;SDS011;9294;51.106;7.028;2023-05-14T14:14:02;4.68;;;4.38;;
18336;SDS011;9294;51.106;7.028;2023-05-14T14:16:29;6.03;;;4.00;;
18336;SDS011;9294;51.106;7.028;2023-05-14T14:18:56;3.85;;;3.55;;
18336;SDS011;9294;51.106;7.028;2023-05-14T14:21:23;5.30;;;4.07;;
18336;SDS011;9294;51.106;7.028;2023-05-14T14:23:50;4.10;;;3.90;;
18336;SDS011;9294;51.106;7.028;2023-05-14T14:26:17;4.47;;;4.10;;
18336;SDS011;9294;51.106;7.028;2023-05-14T14:28:46;4.13;;;3.92;;
18336;SDS011;9294;51.106;7.028;2023-05-14T14:31:13;4.80;;;4.43;;
18336;SDS011;9294;51.106;7.028;2023-05-14T14:33:41;4.38;;;4.00;;
18336;SDS011;9294;51.106;7.028;2023-05-14T14:36:08;4.35;;;4.13;;
18336;SDS011;9294;51.106;7.028;2023-05-14T14:38:35;6.30;;;4.30;;
18336;SDS011;9294;51.106;7.028;2023-05-14T14:41:03;4.28;;;4.07;;
18336;SDS011;9294;51.106;7.028;2023-05-14T14:43:31;4.53;;;4.32;;
18336;SDS011;9294;51.106;7.028;2023-05-14T14:46:00;4.18;;;3.85;;
18336;SDS011;9294;51.106;7.028;2023-05-14T14:48:28;4.03;;;3.72;;
18336;SDS011;9294;51.106;7.028;2023-05-14T14:50:58;4.25;;;3.85;;
18336;SDS011;9294;51.106;7.028;2023-05-14T14:53:26;3.67;;;3.55;;
18336;SDS011;9294;51.106;7.028;2023-05-14T14:55:53;4.88;;;3.95;;
18336;SDS011;9294;51.106;7.028;2023-05-14T14:58:20;4.60;;;4.30;;
18336;SDS011;9294;51.106;7.028;2023-05-14T15:00:47;4.22;;;4.03;;
18336;SDS011;9294;51.106;7.028;2023-05-14T15:03:16;4.65;;;3.75;;